createdAt,value
2022-08-20T00:00:20.184Z,12.10
2022-08-20T00:02:47.623Z,9.57
2022-08-20T00:05:14.389Z,9.80
2022-08-20T00:07:40.913Z,13.38
2022-08-20T00:10:07.799Z,15.52
2022-08-20T00:12:34.717Z,11.18
2022-08-20T00:15:01.525Z,8.13
2022-08-20T00:17:33.394Z,8.73
2022-08-20T00:19:59.889Z,8.18
2022-08-20T00:22:28.360Z,8.70
2022-08-20T00:24:54.854Z,9.48
2022-08-20T00:27:21.350Z,8.50
2022-08-20T00:29:47.959Z,11.95
2022-08-20T00:32:14.467Z,12.45
2022-08-20T00:34:42.389Z,12.73
2022-08-20T00:37:09.306Z,12.50
2022-08-20T00:39:35.897Z,11.13
2022-08-20T00:42:02.654Z,15.60
2022-08-20T00:44:29.112Z,11.73
2022-08-20T00:46:55.614Z,17.23
2022-08-20T00:49:24.806Z,11.25
2022-08-20T00:51:59.115Z,14.45
2022-08-20T00:54:27.295Z,15.18
2022-08-20T00:56:58.083Z,14.82
2022-08-20T00:59:26.198Z,14.23
2022-08-20T01:01:55.687Z,16.05
2022-08-20T01:04:22.854Z,12.55
2022-08-20T01:06:49.380Z,11.45
2022-08-20T01:09:15.892Z,13.50
2022-08-20T01:11:42.416Z,13.50
2022-08-20T01:14:47.422Z,15.60
2022-08-20T01:17:20.602Z,17.13
2022-08-20T01:19:56.180Z,12.80
2022-08-20T01:25:40.481Z,15.68
2022-08-20T01:28:06.989Z,12.35
2022-08-20T01:30:33.488Z,15.52
2022-08-20T01:33:00.087Z,14.95
2022-08-20T01:35:26.632Z,18.75
2022-08-20T01:37:53.198Z,16.48
2022-08-20T01:40:22.070Z,23.85
2022-08-20T01:42:51.175Z,21.23
2022-08-20T01:45:47.096Z,22.70
2022-08-20T01:48:15.844Z,20.02
2022-08-20T01:50:43.445Z,22.50
2022-08-20T01:53:20.693Z,23.23
2022-08-20T01:55:47.285Z,19.33
2022-08-20T01:58:13.851Z,19.05
2022-08-20T02:00:40.350Z,23.33
2022-08-20T02:03:08.515Z,20.00
2022-08-20T02:05:35.666Z,20.52
2022-08-20T02:08:02.365Z,31.00
2022-08-20T02:10:31.645Z,21.55
2022-08-20T02:12:59.234Z,22.77
2022-08-20T02:15:30.743Z,20.95
2022-08-20T02:18:03.952Z,22.25
2022-08-20T02:20:31.970Z,21.35
2022-08-20T02:22:59.640Z,24.00
2022-08-20T02:25:27.252Z,27.42
2022-08-20T02:27:54.663Z,21.88
2022-08-20T02:30:27.778Z,25.52
2022-08-20T02:32:56.342Z,23.35
2022-08-20T02:35:23.046Z,18.60
2022-08-20T02:37:49.851Z,19.38
2022-08-20T02:40:17.836Z,24.77
2022-08-20T02:42:54.328Z,19.38
2022-08-20T02:45:22.468Z,16.77
2022-08-20T02:47:49.108Z,15.07
2022-08-20T02:50:17.541Z,13.98
2022-08-20T02:52:46.259Z,18.15
2022-08-20T02:55:26.978Z,17.80
2022-08-20T02:57:55.642Z,16.75
2022-08-20T03:00:25.563Z,23.42
2022-08-20T03:02:52.049Z,20.10
2022-08-20T03:05:18.566Z,25.02
2022-08-20T03:07:45.750Z,17.15
2022-08-20T03:10:12.731Z,20.20
2022-08-20T03:12:39.312Z,22.63
2022-08-20T03:15:06.650Z,17.20
2022-08-20T03:17:43.942Z,17.40
2022-08-20T03:20:10.924Z,24.50
2022-08-20T03:22:37.374Z,15.55
2022-08-20T03:25:04.299Z,14.48
2022-08-20T03:27:35.497Z,15.50
2022-08-20T03:30:03.621Z,16.73
2022-08-20T03:32:30.161Z,19.75
2022-08-20T03:34:56.881Z,15.05
2022-08-20T03:37:23.386Z,15.15
2022-08-20T03:39:49.955Z,18.70
2022-08-20T03:42:16.479Z,18.65
2022-08-20T03:44:43.404Z,17.05
2022-08-20T03:47:09.936Z,13.98
2022-08-20T03:49:36.422Z,14.63
2022-08-20T03:52:03.840Z,16.75
2022-08-20T03:54:31.944Z,17.15
2022-08-20T03:56:58.867Z,20.20
2022-08-20T03:59:25.335Z,23.52
2022-08-20T04:01:52.550Z,18.63
2022-08-20T04:04:19.610Z,14.27
2022-08-20T04:06:47.630Z,19.52
2022-08-20T04:09:14.465Z,15.27
2022-08-20T04:11:41.495Z,15.48
2022-08-20T04:14:09.245Z,15.65
2022-08-20T04:16:37.880Z,13.57
2022-08-20T04:19:04.557Z,15.43
2022-08-20T04:21:33.047Z,12.63
2022-08-20T04:24:00.170Z,12.20
2022-08-20T04:26:26.779Z,10.95
2022-08-20T04:28:55.707Z,11.05
2022-08-20T04:31:25.409Z,18.05
2022-08-20T04:33:52.100Z,12.75
2022-08-20T04:36:18.619Z,14.10
2022-08-20T04:38:49.851Z,12.43
2022-08-20T04:41:22.884Z,14.30
2022-08-20T04:43:50.460Z,11.50
2022-08-20T04:46:17.138Z,10.25
2022-08-20T04:48:48.615Z,12.65
2022-08-20T04:51:15.729Z,19.88
2022-08-20T04:53:42.982Z,13.70
2022-08-20T04:56:09.628Z,15.15
2022-08-20T04:58:38.197Z,13.32
2022-08-20T05:01:06.097Z,15.50
2022-08-20T05:03:32.597Z,9.70
2022-08-20T05:05:59.213Z,9.85
2022-08-20T05:08:25.785Z,11.25
2022-08-20T05:11:06.606Z,15.23
2022-08-20T05:13:39.131Z,13.43
2022-08-20T05:16:11.199Z,14.15
2022-08-20T05:18:56.574Z,14.77
2022-08-20T05:21:23.215Z,12.00
2022-08-20T05:23:49.728Z,13.00
2022-08-20T05:26:28.411Z,16.00
2022-08-20T05:28:58.949Z,18.30
2022-08-20T05:31:31.375Z,16.10
2022-08-20T05:34:13.153Z,15.88
2022-08-20T05:36:48.229Z,13.70
2022-08-20T05:39:16.451Z,14.60
2022-08-20T05:41:43.006Z,13.82
2022-08-20T05:44:14.230Z,15.00
2022-08-20T05:46:41.086Z,14.52
2022-08-20T05:49:08.742Z,17.45
2022-08-20T05:51:37.102Z,14.23
2022-08-20T05:54:04.169Z,13.93
2022-08-20T05:56:31.028Z,15.68
2022-08-20T05:58:58.187Z,15.45
2022-08-20T06:01:24.808Z,17.48
2022-08-20T06:04:10.101Z,14.75
2022-08-20T06:06:44.383Z,14.85
2022-08-20T06:09:11.851Z,13.57
2022-08-20T06:11:38.333Z,15.00
2022-08-20T06:14:05.629Z,14.25
2022-08-20T06:16:32.274Z,13.55
2022-08-20T06:18:58.792Z,14.90
2022-08-20T06:21:25.583Z,11.45
2022-08-20T06:23:57.062Z,13.13
2022-08-20T06:26:30.575Z,13.48
2022-08-20T06:28:58.219Z,17.52
2022-08-20T06:31:25.121Z,14.48
2022-08-20T06:33:51.739Z,19.52
2022-08-20T06:36:18.979Z,13.75
2022-08-20T06:38:46.423Z,16.60
2022-08-20T06:41:13.016Z,13.68
2022-08-20T06:43:39.580Z,19.73
2022-08-20T06:46:07.025Z,17.63
2022-08-20T06:48:34.055Z,15.85
2022-08-20T06:51:00.575Z,15.60
2022-08-20T06:53:27.080Z,11.13
2022-08-20T06:55:54.282Z,15.40
2022-08-20T06:58:36.580Z,18.08
2022-08-20T07:01:10.169Z,19.33
2022-08-20T07:03:38.524Z,14.95
2022-08-20T07:06:05.120Z,13.95
2022-08-20T07:08:31.597Z,15.30
2022-08-20T07:10:58.298Z,14.32
2022-08-20T07:13:24.798Z,20.30
2022-08-20T07:15:52.991Z,24.17
2022-08-20T07:18:27.907Z,19.05
2022-08-20T07:20:56.865Z,19.63
2022-08-20T07:23:23.871Z,20.02
2022-08-20T07:25:50.392Z,18.10
2022-08-20T07:28:18.759Z,15.40
2022-08-20T07:31:13.405Z,15.02
2022-08-20T07:33:42.614Z,17.48
2022-08-20T07:36:11.276Z,19.13
2022-08-20T07:38:37.841Z,17.17
2022-08-20T07:41:05.157Z,18.88
2022-08-20T07:43:31.818Z,18.60
2022-08-20T07:46:00.866Z,16.73
2022-08-20T07:48:32.363Z,17.83
2022-08-20T07:51:01.018Z,26.25
2022-08-20T07:53:30.131Z,15.88
2022-08-20T07:55:59.579Z,19.40
2022-08-20T07:58:27.697Z,19.85
2022-08-20T08:01:00.269Z,21.55
2022-08-20T08:03:39.571Z,9.65
2022-08-20T08:06:14.701Z,12.88
2022-08-20T08:08:44.019Z,13.55
2022-08-20T08:11:10.588Z,20.00
2022-08-20T08:13:39.138Z,10.63
2022-08-20T08:16:06.323Z,9.57
2022-08-20T08:18:52.132Z,11.13
2022-08-20T08:21:19.139Z,12.77
2022-08-20T08:23:45.825Z,10.98
2022-08-20T08:26:15.992Z,12.65
2022-08-20T08:28:45.349Z,10.40
2022-08-20T08:31:11.898Z,9.55
2022-08-20T08:33:40.096Z,12.55
2022-08-20T08:36:06.838Z,9.77
2022-08-20T08:38:34.434Z,12.80
2022-08-20T08:41:28.497Z,13.63
2022-08-20T08:43:55.643Z,18.00
2022-08-20T08:46:26.398Z,12.38
2022-08-20T08:48:55.920Z,17.00
2022-08-20T08:51:26.790Z,14.13
2022-08-20T08:53:54.824Z,19.23
2022-08-20T08:56:23.533Z,19.83
2022-08-20T08:58:50.085Z,20.83
2022-08-20T09:01:54.652Z,23.13
2022-08-20T09:04:05.664Z,14.38
2022-08-20T09:06:32.242Z,14.10
2022-08-20T09:09:02.975Z,13.88
2022-08-20T09:11:29.568Z,13.65
2022-08-20T09:13:56.197Z,12.70
2022-08-20T09:16:23.131Z,13.52
2022-08-20T09:18:50.020Z,19.00
2022-08-20T09:21:16.582Z,21.45
2022-08-20T09:23:43.261Z,13.65
2022-08-20T09:26:09.757Z,16.42
2022-08-20T09:28:37.307Z,14.07
2022-08-20T09:31:04.462Z,12.85
2022-08-20T09:33:32.144Z,16.63
2022-08-20T09:35:58.659Z,11.73
2022-08-20T09:38:25.254Z,11.50
2022-08-20T09:40:51.802Z,14.27
2022-08-20T09:43:18.404Z,12.77
2022-08-20T09:45:44.916Z,12.75
2022-08-20T09:48:11.467Z,12.52
2022-08-20T09:50:39.045Z,13.00
2022-08-20T09:53:05.787Z,15.25
2022-08-20T09:55:32.329Z,11.40
2022-08-20T09:57:59.245Z,12.55
2022-08-20T10:00:25.821Z,11.43
2022-08-20T10:02:52.355Z,16.27
2022-08-20T10:05:18.940Z,14.25
2022-08-20T10:07:45.782Z,13.07
2022-08-20T10:10:13.050Z,13.88
2022-08-20T10:12:41.626Z,11.63
2022-08-20T10:18:41.294Z,16.30
2022-08-20T10:21:46.570Z,11.05
2022-08-20T10:24:13.029Z,10.05
2022-08-20T10:26:39.575Z,10.48
2022-08-20T10:32:39.430Z,16.42
2022-08-20T10:35:11.444Z,16.40
2022-08-20T10:37:38.025Z,14.55
2022-08-20T10:40:04.929Z,14.20
2022-08-20T10:42:31.492Z,10.95
2022-08-20T10:44:58.290Z,14.15
2022-08-20T10:47:25.701Z,13.98
2022-08-20T10:49:52.941Z,10.80
2022-08-20T10:52:19.826Z,11.27
2022-08-20T10:54:46.465Z,14.27
2022-08-20T11:00:41.219Z,13.05
2022-08-20T11:06:38.343Z,14.98
2022-08-20T11:09:04.854Z,10.55
2022-08-20T11:11:35.800Z,10.57
2022-08-20T11:14:02.387Z,8.95
2022-08-20T11:16:29.490Z,12.73
2022-08-20T11:22:51.702Z,9.23
2022-08-20T11:25:19.240Z,10.93
2022-08-20T11:27:46.847Z,8.85
2022-08-20T11:30:17.689Z,13.57
2022-08-20T11:32:44.238Z,10.77
2022-08-20T11:35:40.417Z,9.15
2022-08-20T11:37:58.514Z,10.75
2022-08-20T11:40:25.378Z,14.55
2022-08-20T11:43:13.804Z,14.35
2022-08-20T11:45:38.479Z,14.73
2022-08-20T11:48:05.234Z,20.42
2022-08-20T11:50:31.760Z,16.55
2022-08-20T11:52:58.383Z,16.27
2022-08-20T11:55:29.980Z,14.13
2022-08-20T11:57:59.839Z,14.63
2022-08-20T12:00:32.117Z,16.73
2022-08-20T12:03:01.108Z,17.02
2022-08-20T12:05:29.922Z,20.73
2022-08-20T12:07:57.060Z,17.40
2022-08-20T12:10:24.661Z,15.70
2022-08-20T12:12:51.226Z,13.77
2022-08-20T12:15:17.769Z,13.20
2022-08-20T12:17:44.345Z,13.80
2022-08-20T12:20:11.620Z,13.75
2022-08-20T12:22:44.821Z,16.10
2022-08-20T12:29:07.316Z,16.95
2022-08-20T12:38:34.415Z,14.10
2022-08-20T12:44:55.263Z,14.02
2022-08-20T12:47:21.868Z,13.07
2022-08-20T12:49:49.547Z,14.10
2022-08-20T12:55:44.170Z,13.73
2022-08-20T12:58:10.856Z,13.85
2022-08-20T13:00:45.985Z,13.95
2022-08-20T13:03:17.038Z,15.73
2022-08-20T13:05:43.574Z,12.20
2022-08-20T13:08:10.868Z,12.00
2022-08-20T13:10:42.483Z,15.40
2022-08-20T13:13:08.983Z,16.75
2022-08-20T13:15:35.518Z,14.45
2022-08-20T13:18:02.624Z,14.27
2022-08-20T13:20:31.670Z,17.95
2022-08-20T13:23:01.256Z,13.65
2022-08-20T13:25:27.783Z,16.52
2022-08-20T13:27:58.047Z,12.57
2022-08-20T13:30:24.742Z,12.43
2022-08-20T13:32:51.383Z,8.73
2022-08-20T13:35:19.514Z,10.32
2022-08-20T13:37:52.682Z,9.63
2022-08-20T13:40:22.439Z,12.38
2022-08-20T13:42:49.276Z,11.80
2022-08-20T13:45:15.907Z,12.20
2022-08-20T13:47:42.667Z,11.55
2022-08-20T13:50:29.418Z,10.50
2022-08-20T13:52:56.728Z,10.05
2022-08-20T13:55:24.376Z,8.57
2022-08-20T13:57:51.002Z,7.13
2022-08-20T14:00:19.029Z,9.98
2022-08-20T14:02:45.618Z,10.65
2022-08-20T14:05:12.393Z,5.78
2022-08-20T14:07:43.772Z,6.95
2022-08-20T14:10:12.848Z,13.63
2022-08-20T14:12:39.491Z,9.20
2022-08-20T14:15:06.437Z,7.43
2022-08-20T14:17:33.733Z,9.90
2022-08-20T14:20:01.983Z,9.57
2022-08-20T14:22:28.760Z,8.07
2022-08-20T14:24:56.554Z,10.63
2022-08-20T14:27:26.375Z,10.40
2022-08-20T14:29:55.721Z,13.23
2022-08-20T14:32:22.313Z,11.32
2022-08-20T14:34:48.822Z,9.38
2022-08-20T14:37:19.524Z,9.80
2022-08-20T14:39:46.714Z,8.20
2022-08-20T14:42:13.354Z,9.25
2022-08-20T14:44:46.026Z,13.25
2022-08-20T14:47:13.759Z,8.57
2022-08-20T14:49:40.277Z,11.45
2022-08-20T14:52:06.823Z,8.02
2022-08-20T14:54:33.515Z,12.40
2022-08-20T14:57:02.024Z,9.98
2022-08-20T14:59:28.877Z,9.88
2022-08-20T15:01:55.460Z,10.43
2022-08-20T15:04:23.434Z,10.13
2022-08-20T15:06:52.164Z,9.55
2022-08-20T15:09:21.227Z,9.02
2022-08-20T15:11:47.743Z,8.02
2022-08-20T15:14:15.116Z,8.60
2022-08-20T15:16:45.201Z,9.50
2022-08-20T15:19:11.768Z,13.57
2022-08-20T15:21:44.937Z,8.82
2022-08-20T15:24:15.760Z,8.52
2022-08-20T15:26:46.055Z,7.30
2022-08-20T15:29:12.634Z,8.45
2022-08-20T15:31:49.613Z,6.88
2022-08-20T15:34:18.122Z,6.93
2022-08-20T15:36:45.106Z,6.88
2022-08-20T15:39:11.726Z,7.07
2022-08-20T15:41:38.282Z,6.70
2022-08-20T15:44:04.894Z,5.45
2022-08-20T15:46:37.493Z,6.05
2022-08-20T15:49:06.969Z,5.20
2022-08-20T15:51:34.677Z,7.88
2022-08-20T15:54:06.301Z,6.65
2022-08-20T15:56:38.356Z,7.55
2022-08-20T15:59:18.605Z,5.22
2022-08-20T16:01:47.980Z,8.13
2022-08-20T16:04:22.035Z,5.35
2022-08-20T16:06:48.627Z,9.63
2022-08-20T16:09:34.153Z,5.65
2022-08-20T16:12:02.306Z,5.38
2022-08-20T16:14:29.571Z,6.70
2022-08-20T16:17:04.266Z,6.25
2022-08-20T16:19:44.557Z,6.25
2022-08-20T16:22:11.535Z,5.57
2022-08-20T16:24:38.045Z,8.20
2022-08-20T16:27:04.729Z,5.93
2022-08-20T16:29:37.882Z,5.75
2022-08-20T16:32:24.751Z,5.78
2022-08-20T16:34:51.271Z,5.88
2022-08-20T16:37:38.052Z,6.43
2022-08-20T16:40:19.995Z,5.95
2022-08-20T16:42:47.764Z,6.70
2022-08-20T16:45:20.471Z,7.65
2022-08-20T16:47:47.015Z,7.90
2022-08-20T16:50:16.218Z,7.45
2022-08-20T16:52:43.600Z,9.40
2022-08-20T16:55:10.399Z,7.05
2022-08-20T16:57:37.122Z,7.93
2022-08-20T17:00:19.012Z,8.75
2022-08-20T17:02:49.236Z,8.30
2022-08-20T17:05:16.442Z,6.63
2022-08-20T17:07:46.665Z,8.40
2022-08-20T17:10:27.351Z,8.13
2022-08-20T17:12:59.922Z,9.63
2022-08-20T17:15:30.942Z,9.18
2022-08-20T17:17:57.562Z,8.18
2022-08-20T17:20:25.092Z,8.63
2022-08-20T17:23:06.271Z,7.68
2022-08-20T17:25:35.531Z,9.93
2022-08-20T17:28:02.068Z,9.52
2022-08-20T17:30:35.736Z,11.07
2022-08-20T17:33:03.736Z,8.25
2022-08-20T17:35:40.634Z,9.95
2022-08-20T17:38:07.333Z,6.80
2022-08-20T17:40:34.989Z,9.50
2022-08-20T17:43:02.776Z,7.80
2022-08-20T17:45:29.358Z,12.55
2022-08-20T17:47:56.748Z,10.55
2022-08-20T17:50:31.650Z,10.52
2022-08-20T17:53:04.699Z,11.10
2022-08-20T17:55:31.452Z,8.52
2022-08-20T17:57:58.122Z,9.05
2022-08-20T18:00:25.826Z,9.23
2022-08-20T18:03:21.792Z,9.90
2022-08-20T18:05:55.357Z,8.95
2022-08-20T18:08:39.275Z,7.97
2022-08-20T18:11:05.809Z,8.43
2022-08-20T18:13:55.590Z,10.15
2022-08-20T18:16:24.468Z,8.80
2022-08-20T18:18:57.424Z,8.00
2022-08-20T18:21:27.172Z,7.80
2022-08-20T18:24:06.994Z,8.10
2022-08-20T18:26:53.136Z,9.43
2022-08-20T18:29:22.518Z,10.27
2022-08-20T18:31:51.952Z,9.25
2022-08-20T18:34:19.620Z,10.00
2022-08-20T18:36:56.953Z,10.77
2022-08-20T18:39:28.733Z,10.70
2022-08-20T18:42:15.467Z,10.68
2022-08-20T18:44:44.138Z,10.85
2022-08-20T18:47:20.663Z,12.50
2022-08-20T18:49:47.238Z,13.05
2022-08-20T18:52:15.727Z,12.35
2022-08-20T18:54:53.888Z,14.07
2022-08-20T18:57:21.422Z,10.95
2022-08-20T18:59:50.962Z,10.73
2022-08-20T19:02:37.751Z,10.65
2022-08-20T19:05:06.425Z,11.88
2022-08-20T19:07:47.905Z,9.25
2022-08-20T19:10:33.576Z,12.68
2022-08-20T19:13:03.206Z,11.02
2022-08-20T19:15:29.770Z,11.27
2022-08-20T19:18:09.720Z,11.05
2022-08-20T19:20:38.065Z,10.05
2022-08-20T19:23:15.191Z,10.95
2022-08-20T19:25:50.468Z,11.35
2022-08-20T19:28:20.150Z,10.75
2022-08-20T19:30:46.670Z,14.77
2022-08-20T19:33:13.470Z,15.50
2022-08-20T19:35:40.684Z,10.48
2022-08-20T19:38:07.968Z,13.18
2022-08-20T19:40:39.298Z,16.17
2022-08-20T19:43:07.391Z,13.88
2022-08-20T19:45:50.720Z,18.02
2022-08-20T19:48:29.354Z,18.33
2022-08-20T19:50:55.928Z,15.38
2022-08-20T19:53:30.193Z,19.30
2022-08-20T19:55:57.346Z,13.65
2022-08-20T19:58:26.691Z,16.00
2022-08-20T20:00:54.132Z,18.30
2022-08-20T20:03:26.128Z,16.58
2022-08-20T20:05:54.030Z,15.13
2022-08-20T20:08:21.014Z,16.42
2022-08-20T20:10:51.840Z,19.98
2022-08-20T20:13:19.213Z,20.48
2022-08-20T20:15:45.772Z,20.08
2022-08-20T20:18:13.138Z,19.25
2022-08-20T20:20:57.218Z,18.88
2022-08-20T20:23:38.522Z,23.77
2022-08-20T20:26:15.075Z,24.80
2022-08-20T20:28:46.333Z,25.05
2022-08-20T20:31:33.252Z,23.50
2022-08-20T20:34:00.706Z,21.02
2022-08-20T20:36:35.109Z,20.98
2022-08-20T20:39:04.938Z,24.88
2022-08-20T20:41:31.670Z,24.45
2022-08-20T20:44:27.578Z,24.08
2022-08-20T20:46:57.660Z,23.27
2022-08-20T20:49:28.313Z,19.25
2022-08-20T20:52:02.703Z,21.48
2022-08-20T20:54:35.328Z,20.50
2022-08-20T20:57:03.001Z,21.40
2022-08-20T20:59:29.743Z,20.73
2022-08-20T21:01:56.415Z,19.65
2022-08-20T21:04:23.391Z,18.58
2022-08-20T21:06:50.616Z,19.23
2022-08-20T21:09:17.234Z,21.13
2022-08-20T21:11:43.854Z,23.25
2022-08-20T21:14:10.460Z,19.80
2022-08-20T21:16:37.034Z,20.52
2022-08-20T21:19:06.734Z,22.85
2022-08-20T21:21:33.307Z,20.88
2022-08-20T21:23:59.891Z,22.50
2022-08-20T21:26:27.210Z,21.27
2022-08-20T21:28:53.810Z,22.25
2022-08-20T21:31:20.338Z,19.15
2022-08-20T21:33:46.906Z,19.38
2022-08-20T21:36:13.694Z,19.65
2022-08-20T21:38:40.214Z,20.85
2022-08-20T21:41:06.696Z,17.58
2022-08-20T21:43:33.267Z,18.13
2022-08-20T21:46:02.350Z,18.92
2022-08-20T21:48:29.877Z,19.48
2022-08-20T21:50:56.396Z,20.83
2022-08-20T21:53:23.056Z,19.10
2022-08-20T21:55:49.567Z,20.20
2022-08-20T21:58:16.739Z,19.58
2022-08-20T22:00:46.737Z,19.90
2022-08-20T22:03:14.292Z,24.85
2022-08-20T22:05:41.296Z,20.27
2022-08-20T22:08:08.004Z,21.75
2022-08-20T22:10:34.516Z,17.30
2022-08-20T22:13:01.085Z,17.00
2022-08-20T22:15:27.591Z,16.45
2022-08-20T22:17:54.136Z,19.13
2022-08-20T22:20:21.805Z,14.80
2022-08-20T22:22:48.319Z,16.65
2022-08-20T22:25:14.901Z,18.80
2022-08-20T22:27:41.428Z,20.08
2022-08-20T22:30:08.358Z,16.10
2022-08-20T22:33:00.788Z,17.30
2022-08-20T22:35:21.499Z,17.20
2022-08-20T22:37:48.240Z,17.02
2022-08-20T22:40:14.870Z,15.75
2022-08-20T22:42:41.395Z,18.60
2022-08-20T22:45:11.589Z,15.75
2022-08-20T22:47:41.672Z,14.80
2022-08-20T22:50:08.284Z,17.52
2022-08-20T22:52:35.947Z,17.88
2022-08-20T22:55:02.452Z,20.10
2022-08-20T22:57:32.501Z,17.63
2022-08-20T23:00:01.039Z,16.50
2022-08-20T23:02:27.801Z,20.15
2022-08-20T23:04:54.401Z,16.00
2022-08-20T23:07:20.992Z,18.33
2022-08-20T23:09:47.587Z,17.30
2022-08-20T23:12:14.065Z,15.73
2022-08-20T23:14:40.603Z,15.30
2022-08-20T23:17:13.248Z,15.70
2022-08-20T23:19:40.339Z,16.08
2022-08-20T23:22:07.298Z,16.92
2022-08-20T23:24:34.343Z,22.63
2022-08-20T23:27:00.906Z,18.00
2022-08-20T23:29:27.459Z,15.70
2022-08-20T23:31:57.246Z,16.33
2022-08-20T23:34:24.159Z,19.30
2022-08-20T23:36:52.522Z,19.63
2022-08-20T23:39:19.629Z,21.05
2022-08-20T23:41:47.685Z,20.63
2022-08-20T23:44:25.389Z,19.05
2022-08-20T23:46:54.689Z,17.23
2022-08-20T23:49:21.282Z,18.67
2022-08-20T23:51:47.877Z,18.40
2022-08-20T23:54:14.438Z,21.83
2022-08-20T23:56:41.121Z,19.75
2022-08-20T23:59:07.699Z,18.63
